createdAt,value
2022-09-12T00:02:04.226Z,21.02
2022-09-12T00:04:31.587Z,20.27
2022-09-12T00:06:58.791Z,20.70
2022-09-12T00:09:26.033Z,17.55
2022-09-12T00:11:53.253Z,25.85
2022-09-12T00:14:20.543Z,21.60
2022-09-12T00:16:47.872Z,24.30
2022-09-12T00:19:15.312Z,24.27
2022-09-12T00:21:42.677Z,20.60
2022-09-12T00:24:10.174Z,23.80
2022-09-12T00:26:39.065Z,23.85
2022-09-12T00:29:06.448Z,23.63
2022-09-12T00:31:33.776Z,22.60
2022-09-12T00:34:02.266Z,20.08
2022-09-12T00:36:30.335Z,22.88
2022-09-12T00:38:58.209Z,22.45
2022-09-12T00:41:25.444Z,22.10
2022-09-12T00:43:54.050Z,25.43
2022-09-12T00:46:24.289Z,22.27
2022-09-12T00:48:54.645Z,23.38
2022-09-12T00:51:22.201Z,23.15
2022-09-12T00:53:51.939Z,25.60
2022-09-12T00:56:19.663Z,22.70
2022-09-12T00:59:08.348Z,24.67
2022-09-12T01:01:36.158Z,21.90
2022-09-12T01:04:03.940Z,23.92
2022-09-12T01:06:35.381Z,24.02
2022-09-12T01:09:04.397Z,22.73
2022-09-12T01:11:39.506Z,25.25
2022-09-12T01:14:07.424Z,27.77
2022-09-12T01:16:40.724Z,24.38
2022-09-12T01:19:26.331Z,23.00
2022-09-12T01:21:53.518Z,23.80
2022-09-12T01:24:43.650Z,22.90
2022-09-12T01:27:17.181Z,21.45
2022-09-12T01:29:44.437Z,23.13
2022-09-12T01:32:30.477Z,23.80
2022-09-12T01:34:57.806Z,23.50
2022-09-12T01:37:27.711Z,25.08
2022-09-12T01:40:06.194Z,25.80
2022-09-12T01:42:35.603Z,21.58
2022-09-12T01:45:25.357Z,25.30
2022-09-12T01:47:57.215Z,27.03
2022-09-12T01:50:36.482Z,30.17
2022-09-12T01:53:13.731Z,23.05
2022-09-12T01:55:53.000Z,24.40
2022-09-12T01:58:22.710Z,26.45
2022-09-12T02:01:05.533Z,25.63
2022-09-12T02:03:44.653Z,21.45
2022-09-12T02:06:18.451Z,22.20
2022-09-12T02:08:47.597Z,25.20
2022-09-12T02:11:14.905Z,26.20
2022-09-12T02:13:43.518Z,26.53
2022-09-12T02:16:16.161Z,26.38
2022-09-12T02:18:46.069Z,30.67
2022-09-12T02:21:14.005Z,25.13
2022-09-12T02:23:46.032Z,23.90
2022-09-12T02:26:21.017Z,26.90
2022-09-12T02:28:52.769Z,26.00
2022-09-12T02:31:26.317Z,28.25
2022-09-12T02:33:53.553Z,25.38
2022-09-12T02:36:30.068Z,23.55
2022-09-12T02:38:57.601Z,26.63
2022-09-12T02:41:24.975Z,27.17
2022-09-12T02:43:53.491Z,27.45
2022-09-12T02:46:33.920Z,25.58
2022-09-12T02:49:01.191Z,27.88
2022-09-12T02:51:28.523Z,33.77
2022-09-12T02:53:56.055Z,28.90
2022-09-12T02:56:28.585Z,34.47
2022-09-12T02:58:57.305Z,28.35
2022-09-12T03:01:35.051Z,29.38
2022-09-12T03:04:08.542Z,36.17
2022-09-12T03:06:49.789Z,30.42
2022-09-12T03:09:38.549Z,32.20
2022-09-12T03:12:20.149Z,30.60
2022-09-12T03:15:01.704Z,30.13
2022-09-12T03:17:35.442Z,27.70
2022-09-12T03:20:15.799Z,33.20
2022-09-12T03:23:02.024Z,27.50
2022-09-12T03:25:37.109Z,26.38
2022-09-12T03:28:09.712Z,29.98
2022-09-12T03:30:51.574Z,30.03
2022-09-12T03:33:20.204Z,31.23
2022-09-12T03:35:47.695Z,28.70
2022-09-12T03:38:15.377Z,27.13
2022-09-12T03:40:42.568Z,27.50
2022-09-12T03:43:10.264Z,25.73
2022-09-12T03:45:38.247Z,26.75
2022-09-12T03:48:06.289Z,26.83
2022-09-12T03:50:34.005Z,28.48
2022-09-12T03:53:01.510Z,28.17
2022-09-12T03:55:28.841Z,28.30
2022-09-12T03:57:56.496Z,26.30
2022-09-12T04:00:23.960Z,29.13
2022-09-12T04:02:54.891Z,29.40
2022-09-12T04:05:22.231Z,26.88
2022-09-12T04:07:49.532Z,26.50
2022-09-12T04:10:16.880Z,30.15
2022-09-12T04:12:44.384Z,32.15
2022-09-12T04:15:11.911Z,29.30
2022-09-12T04:17:39.263Z,31.92
2022-09-12T04:20:07.069Z,30.97
2022-09-12T04:22:34.530Z,30.20
2022-09-12T04:25:01.930Z,29.27
2022-09-12T04:27:29.252Z,29.85
2022-09-12T04:29:57.382Z,30.52
2022-09-12T04:32:24.674Z,30.83
2022-09-12T04:34:52.827Z,32.42
2022-09-12T04:37:20.534Z,34.58
2022-09-12T04:39:49.442Z,28.33
2022-09-12T04:42:16.882Z,28.23
2022-09-12T04:44:44.085Z,29.57
2022-09-12T04:47:11.400Z,29.02
2022-09-12T04:49:41.281Z,25.30
2022-09-12T04:52:08.507Z,27.58
2022-09-12T04:54:35.913Z,30.08
2022-09-12T04:57:03.085Z,27.83
2022-09-12T04:59:30.306Z,29.77
2022-09-12T05:01:57.666Z,25.33
2022-09-12T05:04:24.908Z,27.15
2022-09-12T05:06:52.162Z,27.17
2022-09-12T05:09:19.368Z,26.80
2022-09-12T05:12:03.776Z,24.45
2022-09-12T05:14:32.556Z,27.73
2022-09-12T05:17:01.411Z,27.33
2022-09-12T05:19:29.113Z,26.15
2022-09-12T05:21:56.345Z,30.37
2022-09-12T05:24:23.896Z,27.90
2022-09-12T05:26:51.122Z,28.95
2022-09-12T05:29:18.415Z,27.92
2022-09-12T05:31:45.841Z,30.52
2022-09-12T05:34:13.579Z,34.53
2022-09-12T05:36:40.759Z,30.27
2022-09-12T05:39:07.947Z,28.20
2022-09-12T05:41:35.987Z,29.55
2022-09-12T05:44:05.170Z,27.88
2022-09-12T05:46:36.228Z,28.97
2022-09-12T05:49:04.255Z,32.97
2022-09-12T05:51:33.485Z,29.92
2022-09-12T05:54:01.291Z,30.23
2022-09-12T05:56:29.345Z,31.77
2022-09-12T05:59:00.160Z,32.93
2022-09-12T06:01:27.875Z,32.78
2022-09-12T06:03:56.474Z,29.92
2022-09-12T06:06:24.531Z,28.88
2022-09-12T06:08:53.165Z,34.58
2022-09-12T06:11:21.944Z,28.13
2022-09-12T06:13:50.338Z,30.20
2022-09-12T06:16:18.929Z,31.52
2022-09-12T06:18:54.119Z,36.10
2022-09-12T06:21:22.014Z,32.10
2022-09-12T06:23:52.301Z,30.80
2022-09-12T06:26:23.230Z,30.15
2022-09-12T06:28:50.767Z,38.63
2022-09-12T06:31:22.553Z,28.73
2022-09-12T06:33:51.771Z,27.38
2022-09-12T06:36:23.539Z,29.50
2022-09-12T06:38:58.203Z,36.88
2022-09-12T06:41:26.167Z,29.92
2022-09-12T06:43:54.417Z,27.55
2022-09-12T06:46:22.244Z,31.00
2022-09-12T06:48:50.484Z,29.77
2022-09-12T06:51:20.067Z,31.10
2022-09-12T06:53:48.113Z,28.55
2022-09-12T06:56:16.678Z,28.77
2022-09-12T06:58:44.621Z,31.35
2022-09-12T07:01:22.151Z,29.10
2022-09-12T07:03:51.023Z,32.58
2022-09-12T07:06:19.442Z,32.83
2022-09-12T07:08:47.203Z,31.27
2022-09-12T07:11:24.490Z,30.13
2022-09-12T07:13:53.268Z,34.30
2022-09-12T07:16:20.923Z,30.13
2022-09-12T07:18:52.399Z,33.58
2022-09-12T07:21:19.950Z,28.42
2022-09-12T07:23:47.493Z,34.28
2022-09-12T07:26:15.443Z,33.53
2022-09-12T07:28:42.735Z,29.35
2022-09-12T07:31:15.539Z,30.25
2022-09-12T07:33:43.082Z,31.77
2022-09-12T07:36:17.359Z,27.52
2022-09-12T07:38:44.805Z,28.13
2022-09-12T07:41:12.924Z,32.17
2022-09-12T07:43:40.328Z,27.30
2022-09-12T07:46:07.849Z,39.80
2022-09-12T07:48:35.034Z,33.22
2022-09-12T07:51:04.044Z,27.97
2022-09-12T07:53:35.948Z,27.02
2022-09-12T07:56:04.432Z,29.73
2022-09-12T07:58:32.209Z,27.00
2022-09-12T08:01:10.356Z,32.00
2022-09-12T08:03:37.935Z,24.47
2022-09-12T08:06:05.244Z,24.45
2022-09-12T08:08:32.602Z,27.42
2022-09-12T08:11:00.690Z,29.85
2022-09-12T08:13:28.867Z,29.42
2022-09-12T08:16:03.556Z,30.33
2022-09-12T08:18:32.653Z,24.02
2022-09-12T08:21:05.405Z,28.75
2022-09-12T08:23:32.646Z,26.67
2022-09-12T08:26:05.295Z,24.33
2022-09-12T08:28:34.072Z,23.00
2022-09-12T08:31:05.557Z,22.80
2022-09-12T08:33:33.793Z,21.95
2022-09-12T08:36:08.313Z,22.98
2022-09-12T08:38:36.348Z,24.30
2022-09-12T08:41:06.657Z,24.13
2022-09-12T08:43:52.026Z,23.35
2022-09-12T08:46:40.867Z,25.77
2022-09-12T08:49:10.695Z,22.48
2022-09-12T08:51:38.326Z,24.77
2022-09-12T08:54:06.210Z,24.00
2022-09-12T08:56:37.335Z,31.10
2022-09-12T08:59:04.532Z,26.75
2022-09-12T09:01:33.170Z,22.83
2022-09-12T09:04:06.500Z,24.90
2022-09-12T09:06:45.962Z,22.23
2022-09-12T09:09:13.149Z,24.83
2022-09-12T09:11:53.161Z,21.20
2022-09-12T09:14:48.904Z,22.33
2022-09-12T09:17:20.233Z,19.80
2022-09-12T09:19:51.099Z,22.33
2022-09-12T09:22:30.825Z,20.55
2022-09-12T09:25:00.596Z,18.42
2022-09-12T09:27:57.577Z,21.30
2022-09-12T09:30:24.842Z,18.25
2022-09-12T09:32:53.581Z,19.17
2022-09-12T09:35:39.512Z,16.63
2022-09-12T09:38:15.723Z,18.33
2022-09-12T09:40:46.323Z,18.02
2022-09-12T09:43:19.735Z,15.20
2022-09-12T09:45:47.962Z,14.07
2022-09-12T09:48:20.685Z,13.95
2022-09-12T09:50:49.093Z,14.23
2022-09-12T09:53:25.124Z,13.77
2022-09-12T09:55:53.637Z,14.90
2022-09-12T09:58:31.071Z,14.47
2022-09-12T10:01:13.510Z,13.60
2022-09-12T10:03:41.073Z,14.80
2022-09-12T10:06:23.397Z,13.82
2022-09-12T10:08:51.070Z,14.55
2022-09-12T10:11:20.556Z,11.67
2022-09-12T10:13:56.936Z,11.05
2022-09-12T10:16:34.784Z,15.75
2022-09-12T10:19:03.430Z,12.23
2022-09-12T10:21:33.973Z,13.52
2022-09-12T10:24:21.096Z,11.70
2022-09-12T10:26:56.558Z,10.82
2022-09-12T10:29:30.038Z,12.43
2022-09-12T10:32:02.656Z,8.45
2022-09-12T10:34:40.614Z,10.23
2022-09-12T10:37:10.266Z,10.47
2022-09-12T10:39:39.593Z,8.75
2022-09-12T10:42:07.412Z,9.35
2022-09-12T10:44:37.560Z,8.52
2022-09-12T10:47:25.424Z,7.03
2022-09-12T10:49:53.530Z,7.47
2022-09-12T10:52:48.002Z,6.47
2022-09-12T10:55:27.635Z,7.47
2022-09-12T10:58:17.933Z,6.82
2022-09-12T11:00:48.779Z,6.95
2022-09-12T11:03:27.095Z,7.23
2022-09-12T11:06:01.809Z,6.28
2022-09-12T11:08:43.707Z,7.65
2022-09-12T11:11:28.173Z,6.82
2022-09-12T11:14:01.058Z,7.28
2022-09-12T11:16:46.163Z,6.63
2022-09-12T11:19:22.789Z,6.47
2022-09-12T11:22:05.751Z,8.27
2022-09-12T11:24:57.268Z,6.72
2022-09-12T11:27:50.241Z,8.07
2022-09-12T11:30:22.569Z,8.27
2022-09-12T11:33:00.311Z,8.85
2022-09-12T11:35:37.401Z,6.43
2022-09-12T11:38:11.694Z,5.47
2022-09-12T11:40:48.480Z,6.45
2022-09-12T11:43:26.369Z,4.60
2022-09-12T11:45:58.442Z,6.90
2022-09-12T11:48:26.904Z,7.10
2022-09-12T11:50:59.545Z,5.93
2022-09-12T11:53:47.217Z,6.30
2022-09-12T11:56:19.210Z,5.00
2022-09-12T11:58:52.340Z,7.88
2022-09-12T12:01:26.103Z,5.57
2022-09-12T12:03:55.733Z,5.65
2022-09-12T12:06:35.592Z,5.68
2022-09-12T12:09:06.419Z,8.27
2022-09-12T12:11:37.674Z,5.38
2022-09-12T12:14:13.998Z,6.07
2022-09-12T12:16:42.027Z,4.60
2022-09-12T12:19:18.412Z,6.13
2022-09-12T12:21:47.558Z,7.93
2022-09-12T12:24:34.634Z,8.75
2022-09-12T12:27:06.453Z,3.97
2022-09-12T12:29:44.419Z,5.47
2022-09-12T12:32:20.102Z,5.22
2022-09-12T12:34:50.982Z,10.17
2022-09-12T12:37:21.677Z,6.53
2022-09-12T12:40:01.633Z,4.35
2022-09-12T12:42:38.439Z,6.25
2022-09-12T12:45:33.898Z,6.25
2022-09-12T12:48:12.081Z,4.43
2022-09-12T12:50:41.972Z,3.67
2022-09-12T12:53:30.827Z,7.85
2022-09-12T12:56:07.914Z,5.60
2022-09-12T12:58:45.889Z,5.32
2022-09-12T13:01:32.238Z,3.80
2022-09-12T13:04:03.127Z,3.33
2022-09-12T13:06:49.265Z,3.58
2022-09-12T13:09:31.977Z,3.58
2022-09-12T13:12:11.450Z,4.03
2022-09-12T13:15:05.790Z,5.73
2022-09-12T13:17:50.629Z,4.35
2022-09-12T13:20:29.397Z,3.72
2022-09-12T13:22:57.419Z,3.95
2022-09-12T13:25:24.779Z,3.45
2022-09-12T13:28:10.797Z,2.90
2022-09-12T13:30:39.737Z,4.57
2022-09-12T13:33:13.859Z,3.05
2022-09-12T13:35:54.458Z,3.30
2022-09-12T13:38:27.570Z,4.93
2022-09-12T13:40:56.476Z,3.40
2022-09-12T13:43:27.778Z,3.97
2022-09-12T13:45:55.044Z,5.20
2022-09-12T13:48:24.270Z,5.82
2022-09-12T13:50:52.872Z,3.55
2022-09-12T13:53:24.708Z,2.93
2022-09-12T13:56:01.398Z,4.18
2022-09-12T13:58:33.607Z,2.40
2022-09-12T14:01:06.893Z,2.40
2022-09-12T14:03:58.557Z,2.50
2022-09-12T14:06:27.629Z,3.80
2022-09-12T14:08:58.962Z,3.88
2022-09-12T14:11:30.498Z,2.70
2022-09-12T14:13:58.215Z,3.53
2022-09-12T14:16:29.165Z,3.10
2022-09-12T14:18:57.099Z,6.03
2022-09-12T14:21:34.144Z,2.55
2022-09-12T14:24:01.874Z,3.25
2022-09-12T14:26:32.501Z,3.67
2022-09-12T14:29:00.198Z,3.17
2022-09-12T14:31:32.125Z,3.20
2022-09-12T14:34:10.428Z,2.35
2022-09-12T14:36:37.653Z,3.60
2022-09-12T14:39:16.191Z,3.15
2022-09-12T14:41:43.545Z,3.35
2022-09-12T14:44:16.377Z,3.90
2022-09-12T14:46:45.076Z,3.35
2022-09-12T14:49:24.169Z,3.28
2022-09-12T14:51:51.672Z,2.50
2022-09-12T14:54:28.297Z,4.10
2022-09-12T14:56:56.629Z,2.00
2022-09-12T14:59:27.193Z,3.75
2022-09-12T15:02:13.420Z,2.20
2022-09-12T15:04:42.275Z,3.05
2022-09-12T15:07:28.629Z,5.22
2022-09-12T15:09:56.154Z,1.90
2022-09-12T15:12:23.583Z,4.28
2022-09-12T15:14:50.896Z,2.72
2022-09-12T15:17:18.377Z,3.45
2022-09-12T15:19:45.579Z,1.98
2022-09-12T15:22:13.865Z,3.00
2022-09-12T15:24:41.111Z,2.05
2022-09-12T15:27:14.586Z,4.35
2022-09-12T15:29:41.896Z,3.38
2022-09-12T15:32:14.776Z,4.15
2022-09-12T15:34:42.117Z,2.50
2022-09-12T15:37:14.151Z,2.72
2022-09-12T15:39:41.626Z,2.80
2022-09-12T15:42:10.023Z,2.58
2022-09-12T15:44:37.284Z,3.05
2022-09-12T15:47:05.201Z,2.50
2022-09-12T15:49:32.652Z,2.45
2022-09-12T15:52:00.512Z,4.07
2022-09-12T15:54:35.487Z,3.15
2022-09-12T15:57:03.302Z,3.13
2022-09-12T15:59:35.101Z,2.50
2022-09-12T16:02:06.212Z,2.22
2022-09-12T16:04:35.589Z,3.05
2022-09-12T16:07:09.747Z,5.68
2022-09-12T16:09:38.942Z,5.85
2022-09-12T16:12:07.255Z,2.50
2022-09-12T16:14:42.695Z,3.58
2022-09-12T16:17:15.087Z,3.63
2022-09-12T16:19:43.037Z,2.42
2022-09-12T16:22:11.491Z,3.03
2022-09-12T16:24:44.390Z,4.37
2022-09-12T16:27:14.209Z,2.53
2022-09-12T16:29:47.504Z,4.03
2022-09-12T16:32:17.391Z,2.25
2022-09-12T16:35:02.479Z,3.17
2022-09-12T16:37:30.295Z,2.87
2022-09-12T16:40:00.487Z,2.17
2022-09-12T16:42:28.834Z,3.17
2022-09-12T16:44:59.314Z,3.15
2022-09-12T16:47:35.340Z,2.35
2022-09-12T16:50:02.800Z,2.70
2022-09-12T16:52:33.710Z,2.67
2022-09-12T16:55:01.714Z,3.30
2022-09-12T16:57:29.388Z,2.45
2022-09-12T17:00:04.792Z,1.90
2022-09-12T17:02:32.472Z,6.13
2022-09-12T17:05:01.780Z,2.28
2022-09-12T17:07:41.776Z,2.55
2022-09-12T17:10:18.546Z,2.88
2022-09-12T17:12:45.847Z,1.85
2022-09-12T17:15:13.576Z,2.50
2022-09-12T17:17:40.824Z,2.53
2022-09-12T17:20:08.193Z,2.47
2022-09-12T17:22:35.489Z,2.47
2022-09-12T17:25:02.701Z,2.35
2022-09-12T17:27:29.911Z,2.20
2022-09-12T17:29:57.138Z,3.67
2022-09-12T17:32:24.442Z,2.40
2022-09-12T17:34:52.282Z,2.92
2022-09-12T17:37:19.783Z,2.33
2022-09-12T17:39:47.081Z,2.00
2022-09-12T17:42:14.463Z,3.28
2022-09-12T17:44:41.704Z,3.33
2022-09-12T17:47:09.012Z,3.35
2022-09-12T17:49:36.668Z,4.40
2022-09-12T17:52:03.976Z,3.30
2022-09-12T17:54:31.319Z,3.63
2022-09-12T17:56:59.326Z,2.70
2022-09-12T17:59:26.652Z,4.10
2022-09-12T18:02:12.432Z,2.53
2022-09-12T18:04:41.121Z,2.30
2022-09-12T18:07:09.015Z,6.13
2022-09-12T18:09:36.441Z,2.53
2022-09-12T18:12:03.699Z,2.50
2022-09-12T18:14:31.027Z,3.22
2022-09-12T18:17:00.088Z,2.47
2022-09-12T18:19:27.892Z,2.10
2022-09-12T18:21:55.944Z,3.53
2022-09-12T18:24:23.532Z,2.35
2022-09-12T18:26:50.808Z,5.78
2022-09-12T18:29:19.953Z,5.27
2022-09-12T18:31:47.373Z,5.43
2022-09-12T18:34:14.803Z,4.43
2022-09-12T18:36:43.012Z,3.28
2022-09-12T18:39:10.255Z,3.85
2022-09-12T18:41:37.849Z,2.50
2022-09-12T18:44:05.729Z,6.93
2022-09-12T18:46:34.913Z,2.58
2022-09-12T18:49:02.561Z,5.50
2022-09-12T18:51:31.720Z,8.32
2022-09-12T18:54:03.603Z,2.73
2022-09-12T18:56:33.023Z,2.90
2022-09-12T18:59:01.285Z,3.72
2022-09-12T19:01:32.894Z,4.75
2022-09-12T19:04:05.098Z,3.25
2022-09-12T19:06:34.596Z,7.23
2022-09-12T19:09:07.376Z,4.57
2022-09-12T19:11:36.638Z,4.20
2022-09-12T19:14:03.943Z,4.57
2022-09-12T19:16:31.460Z,4.22
2022-09-12T19:18:59.345Z,6.00
2022-09-12T19:21:28.225Z,5.18
2022-09-12T19:24:02.025Z,4.50
2022-09-12T19:26:30.078Z,4.18
2022-09-12T19:28:57.806Z,3.67
2022-09-12T19:31:25.530Z,4.80
2022-09-12T19:33:53.311Z,3.97
2022-09-12T19:36:43.838Z,3.35
2022-09-12T19:39:10.281Z,3.85
2022-09-12T19:41:37.709Z,4.70
2022-09-12T19:44:05.577Z,5.87
2022-09-12T19:46:32.863Z,5.88
2022-09-12T19:49:00.222Z,3.70
2022-09-12T19:51:27.505Z,3.15
2022-09-12T19:53:54.755Z,3.55
2022-09-12T19:56:22.118Z,5.53
2022-09-12T19:58:55.811Z,5.78
2022-09-12T20:01:25.623Z,4.32
2022-09-12T20:03:53.794Z,5.65
2022-09-12T20:06:21.534Z,4.32
2022-09-12T20:08:49.383Z,3.87
2022-09-12T20:11:17.910Z,3.78
2022-09-12T20:13:46.184Z,3.58
2022-09-12T20:16:21.826Z,8.57
2022-09-12T20:18:53.264Z,5.05
2022-09-12T20:21:25.989Z,3.67
2022-09-12T20:23:53.485Z,5.13
2022-09-12T20:26:21.035Z,4.00
2022-09-12T20:28:48.979Z,4.72
2022-09-12T20:31:17.130Z,5.22
2022-09-12T20:33:48.625Z,4.33
2022-09-12T20:36:20.351Z,4.53
2022-09-12T20:38:49.491Z,5.78
2022-09-12T20:41:17.949Z,6.95
2022-09-12T20:43:51.965Z,5.82
2022-09-12T20:46:25.302Z,4.67
2022-09-12T20:48:53.555Z,5.10
2022-09-12T20:51:43.595Z,6.05
2022-09-12T20:54:14.613Z,5.00
2022-09-12T20:56:42.766Z,6.75
2022-09-12T20:59:14.281Z,5.23
2022-09-12T21:01:45.405Z,5.85
2022-09-12T21:04:15.126Z,5.45
2022-09-12T21:06:46.185Z,7.55
2022-09-12T21:09:22.696Z,3.95
2022-09-12T21:11:53.389Z,5.77
2022-09-12T21:14:21.222Z,5.55
2022-09-12T21:16:48.997Z,8.02
2022-09-12T21:19:21.239Z,4.70
2022-09-12T21:21:54.164Z,4.93
2022-09-12T21:24:24.989Z,4.57
2022-09-12T21:26:55.041Z,5.10
2022-09-12T21:29:26.559Z,5.07
2022-09-12T21:31:56.725Z,8.13
2022-09-12T21:34:27.208Z,4.45
2022-09-12T21:36:55.888Z,4.20
2022-09-12T21:39:23.453Z,6.20
2022-09-12T21:41:50.937Z,6.10
2022-09-12T21:44:27.203Z,6.43
2022-09-12T21:46:56.315Z,4.18
2022-09-12T21:49:25.967Z,6.03
2022-09-12T21:51:57.620Z,6.03
2022-09-12T21:54:27.352Z,5.57
2022-09-12T21:56:58.678Z,4.30
2022-09-12T21:59:30.177Z,6.13
2022-09-12T22:01:58.034Z,7.17
2022-09-12T22:04:29.487Z,4.40
2022-09-12T22:06:58.434Z,6.40
2022-09-12T22:09:28.121Z,6.78
2022-09-12T22:11:56.942Z,6.00
2022-09-12T22:14:34.638Z,5.07
2022-09-12T22:17:02.151Z,4.50
2022-09-12T22:19:31.649Z,5.50
2022-09-12T22:22:17.956Z,6.93
2022-09-12T22:24:48.348Z,7.40
2022-09-12T22:27:16.190Z,4.47
2022-09-12T22:29:46.409Z,5.35
2022-09-12T22:32:15.715Z,5.00
2022-09-12T22:34:46.126Z,4.40
2022-09-12T22:37:22.321Z,6.78
2022-09-12T22:39:53.176Z,4.40
2022-09-12T22:42:23.207Z,9.07
2022-09-12T22:45:00.785Z,6.03
2022-09-12T22:47:37.342Z,5.25
2022-09-12T22:50:05.125Z,6.13
2022-09-12T22:52:32.802Z,4.77
2022-09-12T22:55:00.806Z,7.57
2022-09-12T22:57:29.733Z,5.60
2022-09-12T22:59:57.162Z,8.65
2022-09-12T23:02:24.670Z,6.55
2022-09-12T23:04:57.928Z,6.03
2022-09-12T23:07:26.529Z,5.72
2022-09-12T23:09:58.792Z,8.00
2022-09-12T23:12:34.329Z,7.72
2022-09-12T23:15:01.924Z,6.97
2022-09-12T23:17:35.092Z,7.17
2022-09-12T23:20:05.971Z,9.35
2022-09-12T23:25:18.348Z,6.13
2022-09-12T23:27:51.123Z,6.93
2022-09-12T23:30:25.328Z,10.43
2022-09-12T23:32:56.534Z,9.82
2022-09-12T23:35:29.560Z,8.38
2022-09-12T23:38:01.930Z,8.27
2022-09-12T23:40:32.505Z,8.25
2022-09-12T23:43:02.641Z,6.27
2022-09-12T23:45:30.773Z,6.97
2022-09-12T23:48:01.975Z,8.80
2022-09-12T23:50:32.256Z,7.18
2022-09-12T23:53:00.181Z,7.40
2022-09-12T23:55:29.246Z,8.07
2022-09-12T23:57:59.975Z,5.55
